createdAt,value
2023-04-16T00:02:14.170Z,100126.97
2023-04-16T00:04:41.537Z,100112.94
2023-04-16T00:07:08.933Z,100137.44
2023-04-16T00:09:36.013Z,100133.09
2023-04-16T00:12:03.510Z,100142.72
2023-04-16T00:14:30.788Z,100133.13
2023-04-16T00:16:57.776Z,100113.84
2023-04-16T00:19:24.764Z,100138.41
2023-04-16T00:21:51.792Z,100134.06
2023-04-16T00:24:18.852Z,100127.09
2023-04-16T00:26:46.522Z,100135.87
2023-04-16T00:29:13.399Z,100141.19
2023-04-16T00:31:40.510Z,100139.44
2023-04-16T00:34:07.599Z,100120.16
2023-04-16T00:36:34.443Z,100129.84
2023-04-16T00:39:01.350Z,100146.47
2023-04-16T00:41:28.457Z,100133.38
2023-04-16T00:43:55.370Z,100155.31
2023-04-16T00:46:23.943Z,100149.16
2023-04-16T00:48:52.858Z,100130.75
2023-04-16T00:51:21.661Z,100153.56
2023-04-16T00:53:48.839Z,100140.44
2023-04-16T00:56:17.513Z,100144.81
2023-04-16T00:58:45.272Z,100122.06
2023-04-16T01:01:14.355Z,100157.06
2023-04-16T01:03:45.309Z,100151.84
2023-04-16T01:06:12.836Z,100145.69
2023-04-16T01:08:40.197Z,100142.22
2023-04-16T01:11:07.133Z,100151.81
2023-04-16T01:13:39.440Z,100128.16
2023-04-16T01:16:11.495Z,100142.19
2023-04-16T01:18:39.351Z,100135.22
2023-04-16T01:21:06.745Z,100147.44
2023-04-16T01:23:33.895Z,100144.81
2023-04-16T01:26:01.546Z,100143.94
2023-04-16T01:28:28.508Z,100147.44
2023-04-16T01:30:55.922Z,100141.34
2023-04-16T01:33:23.674Z,100138.72
2023-04-16T01:35:50.742Z,100129.06
2023-04-16T01:38:17.814Z,100150.09
2023-04-16T01:40:44.714Z,100131.69
2023-04-16T01:43:11.810Z,100127.31
2023-04-16T01:45:38.677Z,100148.34
2023-04-16T01:48:06.104Z,100144.84
2023-04-16T01:50:33.599Z,100141.31
2023-04-16T01:53:02.212Z,100155.34
2023-04-16T01:55:29.227Z,100150.97
2023-04-16T01:57:56.340Z,100134.31
2023-04-16T02:00:23.366Z,100136.06
2023-04-16T02:02:51.070Z,100112.44
2023-04-16T02:05:18.332Z,100162.37
2023-04-16T02:07:45.516Z,100144.81
2023-04-16T02:10:12.352Z,100137.81
2023-04-16T02:12:39.483Z,100146.59
2023-04-16T02:15:07.264Z,100153.59
2023-04-16T02:17:34.202Z,100161.50
2023-04-16T02:20:05.854Z,100162.34
2023-04-16T02:22:32.820Z,100137.81
2023-04-16T02:24:59.673Z,100149.22
2023-04-16T02:27:27.247Z,100157.97
2023-04-16T02:29:54.112Z,100162.34
2023-04-16T02:32:22.337Z,100141.31
2023-04-16T02:34:49.446Z,100171.12
2023-04-16T02:37:16.335Z,100167.62
2023-04-16T02:39:44.160Z,100175.50
2023-04-16T02:42:11.337Z,100165.00
2023-04-16T02:44:38.430Z,100152.72
2023-04-16T02:47:05.552Z,100152.72
2023-04-16T02:49:32.777Z,100159.75
2023-04-16T02:52:01.202Z,100158.84
2023-04-16T02:54:28.030Z,100152.72
2023-04-16T02:56:54.970Z,100168.50
2023-04-16T02:59:22.037Z,100178.12
2023-04-16T03:01:49.087Z,100177.25
2023-04-16T03:04:16.475Z,100168.47
2023-04-16T03:06:43.582Z,100186.03
2023-04-16T03:09:10.578Z,100180.75
2023-04-16T03:11:38.041Z,100174.59
2023-04-16T03:14:04.973Z,100179.87
2023-04-16T03:16:32.233Z,100172.87
2023-04-16T03:18:59.383Z,100185.13
2023-04-16T03:21:27.695Z,100192.13
2023-04-16T03:23:56.313Z,100170.22
2023-04-16T03:26:23.638Z,100195.66
2023-04-16T03:28:50.850Z,100171.97
2023-04-16T03:31:17.892Z,100196.50
2023-04-16T03:33:45.896Z,100198.25
2023-04-16T03:36:12.791Z,100199.13
2023-04-16T03:38:39.946Z,100195.63
2023-04-16T03:41:06.844Z,100185.13
2023-04-16T03:43:34.013Z,100207.00
2023-04-16T03:46:01.086Z,100203.53
2023-04-16T03:48:28.628Z,100220.16
2023-04-16T03:50:56.062Z,100221.91
2023-04-16T03:53:23.318Z,100210.50
2023-04-16T03:55:51.694Z,100224.56
2023-04-16T03:58:20.059Z,100228.06
2023-04-16T04:00:47.429Z,100228.94
2023-04-16T04:03:17.368Z,100234.19
2023-04-16T04:05:44.566Z,100233.28
2023-04-16T04:08:11.726Z,100228.03
2023-04-16T04:10:38.845Z,100236.81
2023-04-16T04:13:06.757Z,100247.34
2023-04-16T04:15:33.973Z,100254.34
2023-04-16T04:18:00.959Z,100240.31
2023-04-16T04:20:28.021Z,100261.34
2023-04-16T04:22:55.301Z,100262.25
2023-04-16T04:25:22.186Z,100264.00
2023-04-16T04:27:49.399Z,100254.37
2023-04-16T04:30:16.339Z,100247.37
2023-04-16T04:32:43.722Z,100242.12
2023-04-16T04:35:10.747Z,100255.28
2023-04-16T04:37:37.644Z,100259.66
2023-04-16T04:40:04.866Z,100245.62
2023-04-16T04:42:31.978Z,100251.78
2023-04-16T04:44:58.927Z,100259.66
2023-04-16T04:47:26.286Z,100252.62
2023-04-16T04:49:53.436Z,100238.59
2023-04-16T04:52:20.851Z,100255.25
2023-04-16T04:54:47.892Z,100261.41
2023-04-16T04:57:15.109Z,100263.16
2023-04-16T04:59:42.187Z,100262.28
2023-04-16T05:02:09.254Z,100264.94
2023-04-16T05:04:36.185Z,100266.69
2023-04-16T05:07:03.166Z,100267.56
2023-04-16T05:09:30.899Z,100267.56
2023-04-16T05:11:58.799Z,100264.91
2023-04-16T05:14:25.791Z,100262.28
2023-04-16T05:16:52.791Z,100281.59
2023-04-16T05:19:19.983Z,100276.34
2023-04-16T05:21:47.011Z,100278.06
2023-04-16T05:24:15.091Z,100268.44
2023-04-16T05:26:42.118Z,100278.97
2023-04-16T05:29:09.502Z,100284.19
2023-04-16T05:31:36.690Z,100266.66
2023-04-16T05:34:03.675Z,100289.44
2023-04-16T05:36:30.784Z,100290.31
2023-04-16T05:38:57.822Z,100278.03
2023-04-16T05:41:24.984Z,100288.53
2023-04-16T05:43:51.841Z,100292.91
2023-04-16T05:46:18.763Z,100261.31
2023-04-16T05:48:46.133Z,100275.34
2023-04-16T05:51:13.208Z,100284.09
2023-04-16T05:53:41.043Z,100269.16
2023-04-16T05:56:08.459Z,100303.34
2023-04-16T05:58:35.461Z,100291.91
2023-04-16T06:01:02.598Z,100313.84
2023-04-16T06:03:30.214Z,100305.00
2023-04-16T06:05:57.422Z,100320.75
2023-04-16T06:08:24.708Z,100317.19
2023-04-16T06:10:51.729Z,100325.91
2023-04-16T06:13:18.874Z,100333.69
2023-04-16T06:15:45.859Z,100327.47
2023-04-16T06:18:13.038Z,100319.50
2023-04-16T06:20:39.986Z,100297.53
2023-04-16T06:23:06.839Z,100305.44
2023-04-16T06:25:33.766Z,100302.81
2023-04-16T06:28:00.686Z,100319.44
2023-04-16T06:30:27.792Z,100315.97
2023-04-16T06:32:55.078Z,100318.53
2023-04-16T06:35:22.074Z,100333.50
2023-04-16T06:37:49.289Z,100326.44
2023-04-16T06:40:16.618Z,100328.19
2023-04-16T06:42:45.391Z,100321.09
2023-04-16T06:45:12.916Z,100327.31
2023-04-16T06:47:39.914Z,100321.94
2023-04-16T06:50:07.568Z,100321.91
2023-04-16T06:52:34.659Z,100313.06
2023-04-16T06:55:02.052Z,100323.53
2023-04-16T06:57:29.012Z,100324.31
2023-04-16T06:59:55.957Z,100318.97
2023-04-16T07:02:24.329Z,100324.16
2023-04-16T07:04:52.435Z,100324.03
2023-04-16T07:07:19.436Z,100316.09
2023-04-16T07:09:46.490Z,100323.09
2023-04-16T07:12:13.544Z,100318.69
2023-04-16T07:14:41.153Z,100313.31
2023-04-16T07:17:08.126Z,100324.75
2023-04-16T07:19:35.637Z,100336.88
2023-04-16T07:22:03.173Z,100326.25
2023-04-16T07:24:30.619Z,100307.63
2023-04-16T07:26:57.866Z,100327.41
2023-04-16T07:29:24.898Z,100328.03
2023-04-16T07:31:51.840Z,100318.91
2023-04-16T07:34:19.048Z,100332.94
2023-04-16T07:36:46.071Z,100337.31
2023-04-16T07:39:13.351Z,100318.81
2023-04-16T07:41:41.270Z,100320.72
2023-04-16T07:44:09.598Z,100324.16
2023-04-16T07:46:46.376Z,100314.34
2023-04-16T07:49:15.017Z,100315.22
2023-04-16T07:51:42.360Z,100333.41
2023-04-16T07:54:10.760Z,100326.06
2023-04-16T07:56:44.968Z,100325.75
2023-04-16T07:59:22.104Z,100326.53
2023-04-16T08:01:53.656Z,100323.44
2023-04-16T08:04:25.462Z,100319.88
2023-04-16T08:06:53.472Z,100314.78
2023-04-16T08:09:21.791Z,100313.97
2023-04-16T08:11:50.076Z,100312.25
2023-04-16T08:14:18.617Z,100313.56
2023-04-16T08:16:45.804Z,100318.31
2023-04-16T08:19:12.921Z,100306.59
2023-04-16T08:21:40.512Z,100315.81
2023-04-16T08:24:07.432Z,100315.44
2023-04-16T08:26:34.545Z,100310.91
2023-04-16T08:29:01.653Z,100318.78
2023-04-16T08:31:29.052Z,100312.63
2023-04-16T08:33:56.166Z,100309.41
2023-04-16T08:36:23.029Z,100316.84
2023-04-16T08:38:50.724Z,100312.50
2023-04-16T08:41:18.071Z,100311.28
2023-04-16T08:43:48.276Z,100297.34
2023-04-16T08:46:17.792Z,100303.84
2023-04-16T08:48:49.471Z,100312.75
2023-04-16T08:51:19.630Z,100297.66
2023-04-16T08:53:54.037Z,100312.03
2023-04-16T08:56:23.943Z,100321.75
2023-04-16T08:58:55.025Z,100305.00
2023-04-16T09:01:23.072Z,100328.06
2023-04-16T09:03:51.016Z,100321.56
2023-04-16T09:06:18.496Z,100323.66
2023-04-16T09:08:46.389Z,100317.50
2023-04-16T09:11:14.496Z,100337.69
2023-04-16T09:13:41.650Z,100335.19
2023-04-16T09:16:09.882Z,100328.78
2023-04-16T09:18:37.056Z,100331.31
2023-04-16T09:21:04.852Z,100333.13
2023-04-16T09:23:31.996Z,100335.34
2023-04-16T09:25:59.928Z,100330.78
2023-04-16T09:28:47.177Z,100325.63
2023-04-16T09:31:15.887Z,100329.47
2023-04-16T09:33:44.393Z,100338.75
2023-04-16T09:36:11.498Z,100318.44
2023-04-16T09:38:50.180Z,100329.25
2023-04-16T09:41:17.422Z,100329.91
2023-04-16T09:43:58.177Z,100335.44
2023-04-16T09:46:35.809Z,100335.00
2023-04-16T09:49:11.038Z,100347.16
2023-04-16T09:51:41.348Z,100344.22
2023-04-16T09:54:09.148Z,100348.31
2023-04-16T09:56:44.889Z,100346.31
2023-04-16T09:59:21.793Z,100334.00
2023-04-16T10:01:50.189Z,100337.16
2023-04-16T10:04:17.655Z,100337.84
2023-04-16T10:06:46.961Z,100331.34
2023-04-16T10:09:14.034Z,100343.38
2023-04-16T10:11:41.404Z,100329.16
2023-04-16T10:14:09.216Z,100332.22
2023-04-16T10:16:37.016Z,100337.66
2023-04-16T10:19:04.712Z,100327.72
2023-04-16T10:21:34.448Z,100309.22
2023-04-16T10:24:02.068Z,100332.25
2023-04-16T10:26:30.628Z,100324.00
2023-04-16T10:28:59.394Z,100332.66
2023-04-16T10:31:28.135Z,100326.56
2023-04-16T10:33:56.332Z,100320.19
2023-04-16T10:36:25.087Z,100329.78
2023-04-16T10:38:58.656Z,100315.34
2023-04-16T10:41:27.361Z,100329.47
2023-04-16T10:44:06.711Z,100331.03
2023-04-16T10:46:38.793Z,100333.22
2023-04-16T10:49:20.660Z,100335.81
2023-04-16T10:52:22.505Z,100329.06
2023-04-16T10:54:52.682Z,100326.00
2023-04-16T10:57:20.786Z,100308.34
2023-04-16T10:59:49.503Z,100314.38
2023-04-16T11:02:18.826Z,100327.81
2023-04-16T11:04:48.275Z,100325.37
2023-04-16T11:07:20.826Z,100316.75
2023-04-16T11:09:56.763Z,100319.72
2023-04-16T11:12:26.955Z,100320.84
2023-04-16T11:15:15.927Z,100314.75
2023-04-16T11:17:47.887Z,100317.56
2023-04-16T11:20:23.362Z,100303.62
2023-04-16T11:22:52.649Z,100308.69
2023-04-16T11:25:24.960Z,100310.12
2023-04-16T11:27:53.236Z,100299.34
2023-04-16T11:30:29.933Z,100318.87
2023-04-16T11:32:57.227Z,100308.91
2023-04-16T11:35:24.653Z,100308.75
2023-04-16T11:37:56.577Z,100309.06
2023-04-16T11:40:24.218Z,100303.00
2023-04-16T11:42:51.278Z,100307.03
2023-04-16T11:45:19.683Z,100291.66
2023-04-16T11:47:55.534Z,100293.97
2023-04-16T11:50:23.899Z,100299.94
2023-04-16T11:52:52.996Z,100297.22
2023-04-16T11:55:20.838Z,100298.88
2023-04-16T11:57:48.945Z,100301.03
2023-04-16T12:00:19.276Z,100292.44
2023-04-16T12:02:53.868Z,100292.47
2023-04-16T12:05:41.529Z,100289.00
2023-04-16T12:08:10.942Z,100286.81
2023-04-16T12:10:53.310Z,100274.19
2023-04-16T12:13:20.327Z,100284.28
2023-04-16T12:15:49.355Z,100274.75
2023-04-16T12:18:18.023Z,100261.75
2023-04-16T12:20:45.964Z,100258.06
2023-04-16T12:23:24.186Z,100269.72
2023-04-16T12:25:52.235Z,100256.75
2023-04-16T12:28:33.331Z,100258.72
2023-04-16T12:31:01.742Z,100251.88
2023-04-16T12:33:29.457Z,100263.41
2023-04-16T12:35:56.708Z,100255.69
2023-04-16T12:38:24.650Z,100244.72
2023-04-16T12:40:52.867Z,100253.41
2023-04-16T12:43:22.016Z,100247.03
2023-04-16T12:45:49.583Z,100240.16
2023-04-16T12:48:16.973Z,100236.13
2023-04-16T12:50:44.544Z,100241.19
2023-04-16T12:53:12.229Z,100230.13
2023-04-16T12:55:39.566Z,100235.47
2023-04-16T12:58:07.042Z,100230.13
2023-04-16T13:00:34.351Z,100231.16
2023-04-16T13:03:01.737Z,100229.31
2023-04-16T13:05:29.303Z,100221.44
2023-04-16T13:07:56.221Z,100226.47
2023-04-16T13:10:23.664Z,100231.19
2023-04-16T13:12:51.070Z,100213.44
2023-04-16T13:15:18.521Z,100226.00
2023-04-16T13:17:45.604Z,100218.91
2023-04-16T13:20:12.949Z,100214.53
2023-04-16T13:22:40.683Z,100219.53
2023-04-16T13:25:08.768Z,100228.62
2023-04-16T13:27:36.504Z,100217.44
2023-04-16T13:30:03.981Z,100223.56
2023-04-16T13:32:32.310Z,100218.84
2023-04-16T13:34:59.434Z,100219.84
2023-04-16T13:37:26.949Z,100223.22
2023-04-16T13:39:54.711Z,100195.03
2023-04-16T13:42:22.552Z,100210.88
2023-04-16T13:44:53.652Z,100201.00
2023-04-16T13:47:21.497Z,100206.09
2023-04-16T13:49:49.087Z,100190.03
2023-04-16T13:52:16.445Z,100189.19
2023-04-16T13:54:43.606Z,100184.88
2023-04-16T13:57:11.430Z,100183.69
2023-04-16T13:59:39.168Z,100187.66
2023-04-16T14:02:06.791Z,100176.84
2023-04-16T14:04:33.928Z,100172.41
2023-04-16T14:07:01.500Z,100182.59
2023-04-16T14:09:28.792Z,100190.13
2023-04-16T14:11:56.320Z,100178.00
2023-04-16T14:14:23.635Z,100163.56
2023-04-16T14:16:50.916Z,100182.81
2023-04-16T14:19:18.588Z,100163.44
2023-04-16T14:21:46.392Z,100182.53
2023-04-16T14:24:13.328Z,100175.13
2023-04-16T14:26:40.496Z,100164.66
2023-04-16T14:29:08.897Z,100175.16
2023-04-16T14:31:37.223Z,100172.97
2023-04-16T14:34:04.937Z,100178.03
2023-04-16T14:36:32.320Z,100172.22
2023-04-16T14:38:59.841Z,100171.50
2023-04-16T14:41:28.086Z,100165.09
2023-04-16T14:43:55.482Z,100155.31
2023-04-16T14:46:23.077Z,100170.09
2023-04-16T14:48:50.338Z,100172.59
2023-04-16T14:51:17.396Z,100158.66
2023-04-16T14:53:44.792Z,100155.97
2023-04-16T14:56:13.178Z,100162.66
2023-04-16T14:58:40.349Z,100168.03
2023-04-16T15:01:07.454Z,100168.22
2023-04-16T15:03:35.045Z,100153.53
2023-04-16T15:06:03.124Z,100173.91
2023-04-16T15:08:30.643Z,100170.88
2023-04-16T15:10:58.254Z,100174.41
2023-04-16T15:13:25.697Z,100155.28
2023-04-16T15:15:53.127Z,100170.00
2023-04-16T15:18:20.296Z,100158.03
2023-04-16T15:20:47.901Z,100166.09
2023-04-16T15:23:15.693Z,100155.47
2023-04-16T15:25:49.966Z,100143.09
2023-04-16T15:28:17.327Z,100156.50
2023-04-16T15:30:45.275Z,100169.16
2023-04-16T15:33:12.612Z,100166.28
2023-04-16T15:35:41.736Z,100160.69
2023-04-16T15:38:09.388Z,100155.94
2023-04-16T15:40:37.250Z,100151.25
2023-04-16T15:43:06.428Z,100155.19
2023-04-16T15:45:34.308Z,100158.97
2023-04-16T15:48:02.942Z,100164.56
2023-04-16T15:50:32.421Z,100153.06
2023-04-16T15:53:01.169Z,100164.12
2023-04-16T15:55:28.818Z,100169.28
2023-04-16T15:57:56.300Z,100145.56
2023-04-16T16:00:25.041Z,100162.66
2023-04-16T16:02:53.433Z,100158.09
2023-04-16T16:05:21.217Z,100157.78
2023-04-16T16:07:49.557Z,100163.13
2023-04-16T16:10:17.206Z,100164.97
2023-04-16T16:12:44.898Z,100156.78
2023-04-16T16:15:13.003Z,100161.69
2023-04-16T16:17:40.881Z,100161.91
2023-04-16T16:20:13.398Z,100172.69
2023-04-16T16:22:45.299Z,100152.63
2023-04-16T16:25:12.470Z,100154.47
2023-04-16T16:27:41.337Z,100148.00
2023-04-16T16:30:10.371Z,100152.78
2023-04-16T16:32:41.246Z,100159.72
2023-04-16T16:35:09.625Z,100160.25
2023-04-16T16:37:38.474Z,100153.44
2023-04-16T16:40:08.131Z,100137.91
2023-04-16T16:42:36.262Z,100137.03
2023-04-16T16:45:06.446Z,100149.44
2023-04-16T16:47:34.059Z,100151.22
2023-04-16T16:50:02.934Z,100163.44
2023-04-16T16:52:30.716Z,100165.47
2023-04-16T16:54:58.643Z,100163.06
2023-04-16T16:57:26.215Z,100166.09
2023-04-16T16:59:56.772Z,100170.72
2023-04-16T17:02:25.001Z,100153.75
2023-04-16T17:04:53.201Z,100164.34
2023-04-16T17:07:21.226Z,100173.44
2023-04-16T17:09:50.759Z,100164.22
2023-04-16T17:12:19.626Z,100176.84
2023-04-16T17:14:51.933Z,100177.56
2023-04-16T17:17:19.387Z,100177.00
2023-04-16T17:19:47.278Z,100176.50
2023-04-16T17:22:14.659Z,100154.88
2023-04-16T17:24:42.497Z,100172.56
2023-04-16T17:27:10.730Z,100157.00
2023-04-16T17:29:38.763Z,100162.72
2023-04-16T17:32:06.779Z,100178.88
2023-04-16T17:34:35.223Z,100168.81
2023-04-16T17:37:02.857Z,100177.81
2023-04-16T17:39:31.057Z,100182.41
2023-04-16T17:42:01.696Z,100189.72
2023-04-16T17:44:38.781Z,100189.94
2023-04-16T17:47:06.650Z,100196.16
2023-04-16T17:49:34.373Z,100186.66
2023-04-16T17:52:04.189Z,100182.97
2023-04-16T17:54:32.244Z,100200.69
2023-04-16T17:57:00.360Z,100205.31
2023-04-16T17:59:28.707Z,100187.09
2023-04-16T18:01:58.242Z,100199.63
2023-04-16T18:04:26.097Z,100193.88
2023-04-16T18:06:53.862Z,100197.44
2023-04-16T18:09:23.273Z,100203.88
2023-04-16T18:11:50.742Z,100198.75
2023-04-16T18:14:21.073Z,100181.38
2023-04-16T18:16:50.071Z,100198.22
2023-04-16T18:19:18.086Z,100191.28
2023-04-16T18:21:45.498Z,100206.28
2023-04-16T18:24:15.652Z,100210.63
2023-04-16T18:26:46.241Z,100204.91
2023-04-16T18:29:17.631Z,100208.53
2023-04-16T18:31:46.578Z,100214.78
2023-04-16T18:34:14.081Z,100211.78
2023-04-16T18:36:41.712Z,100206.56
2023-04-16T18:39:10.628Z,100165.91
2023-04-16T18:41:38.675Z,100208.59
2023-04-16T18:44:06.051Z,100208.72
2023-04-16T18:46:33.620Z,100212.25
2023-04-16T18:49:01.435Z,100207.34
2023-04-16T18:51:31.127Z,100193.44
2023-04-16T18:53:58.828Z,100218.25
2023-04-16T18:56:26.709Z,100208.84
2023-04-16T18:58:54.855Z,100203.03
2023-04-16T19:01:23.195Z,100213.69
2023-04-16T19:03:51.197Z,100206.87
2023-04-16T19:06:19.230Z,100188.53
2023-04-16T19:08:47.005Z,100185.00
2023-04-16T19:11:14.414Z,100214.22
2023-04-16T19:13:42.528Z,100214.31
2023-04-16T19:16:12.973Z,100211.62
2023-04-16T19:18:43.275Z,100212.66
2023-04-16T19:21:11.939Z,100206.44
2023-04-16T19:23:39.631Z,100203.97
2023-04-16T19:26:10.132Z,100209.19
2023-04-16T19:28:38.893Z,100188.25
2023-04-16T19:31:07.563Z,100205.84
2023-04-16T19:33:36.569Z,100208.69
2023-04-16T19:36:04.768Z,100205.28
2023-04-16T19:38:32.509Z,100197.56
2023-04-16T19:41:00.951Z,100207.28
2023-04-16T19:43:32.530Z,100202.81
2023-04-16T19:46:01.933Z,100204.53
2023-04-16T19:48:31.050Z,100194.03
2023-04-16T19:51:02.774Z,100196.31
2023-04-16T19:53:31.086Z,100190.19
2023-04-16T19:55:59.872Z,100190.16
2023-04-16T19:58:27.698Z,100198.88
2023-04-16T20:00:56.705Z,100184.09
2023-04-16T20:03:25.278Z,100197.25
2023-04-16T20:05:53.469Z,100186.84
2023-04-16T20:08:20.987Z,100193.66
2023-04-16T20:10:49.826Z,100182.28
2023-04-16T20:13:18.861Z,100174.62
2023-04-16T20:15:47.408Z,100187.69
2023-04-16T20:18:15.715Z,100199.03
2023-04-16T20:20:43.766Z,100194.59
2023-04-16T20:23:11.381Z,100196.37
2023-04-16T20:25:46.604Z,100196.47
2023-04-16T20:28:16.397Z,100181.81
2023-04-16T20:30:43.326Z,100198.50
2023-04-16T20:33:10.988Z,100201.16
2023-04-16T20:35:38.011Z,100196.78
2023-04-16T20:38:05.354Z,100195.91
2023-04-16T20:40:32.624Z,100194.28
2023-04-16T20:43:00.196Z,100174.25
2023-04-16T20:45:38.287Z,100182.97
2023-04-16T20:48:05.839Z,100185.69
2023-04-16T20:50:33.488Z,100179.44
2023-04-16T20:53:00.794Z,100182.19
2023-04-16T20:55:27.620Z,100170.97
2023-04-16T20:57:54.709Z,100192.03
2023-04-16T21:00:22.649Z,100199.09
2023-04-16T21:02:49.906Z,100159.81
2023-04-16T21:05:17.112Z,100179.87
2023-04-16T21:07:44.243Z,100174.06
2023-04-16T21:10:11.471Z,100154.78
2023-04-16T21:12:38.610Z,100180.06
2023-04-16T21:15:06.045Z,100187.88
2023-04-16T21:17:32.974Z,100180.94
2023-04-16T21:20:00.009Z,100194.06
2023-04-16T21:22:27.256Z,100186.31
2023-04-16T21:24:54.579Z,100198.59
2023-04-16T21:27:21.498Z,100179.44
2023-04-16T21:29:48.416Z,100170.78
2023-04-16T21:32:15.339Z,100177.56
2023-04-16T21:34:42.300Z,100184.47
2023-04-16T21:37:10.408Z,100183.66
2023-04-16T21:39:37.500Z,100185.53
2023-04-16T21:42:04.649Z,100183.88
2023-04-16T21:44:32.165Z,100160.38
2023-04-16T21:46:59.124Z,100176.94
2023-04-16T21:49:26.205Z,100175.34
2023-04-16T21:51:59.173Z,100165.91
2023-04-16T21:54:26.264Z,100161.44
2023-04-16T21:56:53.149Z,100175.44
2023-04-16T21:59:19.974Z,100181.78
2023-04-16T22:01:47.016Z,100182.72
2023-04-16T22:04:14.150Z,100163.72
2023-04-16T22:06:41.076Z,100175.91
2023-04-16T22:09:07.956Z,100165.44
2023-04-16T22:11:34.977Z,100167.25
2023-04-16T22:14:03.109Z,100168.00
2023-04-16T22:16:31.181Z,100153.06
2023-04-16T22:18:58.508Z,100163.47
2023-04-16T22:21:26.059Z,100160.88
2023-04-16T22:23:52.856Z,100137.25
2023-04-16T22:26:19.732Z,100147.69
2023-04-16T22:28:47.346Z,100151.84
2023-04-16T22:31:14.658Z,100134.88
2023-04-16T22:33:41.456Z,100138.97
2023-04-16T22:36:08.662Z,100161.84
2023-04-16T22:38:35.853Z,100143.38
2023-04-16T22:41:03.083Z,100157.47
2023-04-16T22:43:30.264Z,100133.91
2023-04-16T22:46:08.096Z,100147.97
2023-04-16T22:48:38.257Z,100153.28
2023-04-16T22:51:07.501Z,100149.84
2023-04-16T22:53:34.633Z,100147.97
2023-04-16T22:56:01.495Z,100142.03
2023-04-16T22:58:28.563Z,100143.75
2023-04-16T23:00:57.575Z,100142.75
2023-04-16T23:03:25.431Z,100140.94
2023-04-16T23:05:52.523Z,100128.84
2023-04-16T23:08:19.381Z,100140.97
2023-04-16T23:10:46.229Z,100139.22
2023-04-16T23:13:13.665Z,100138.44
2023-04-16T23:15:40.628Z,100135.00
2023-04-16T23:18:08.254Z,100133.19
2023-04-16T23:20:35.629Z,100119.19
2023-04-16T23:23:02.598Z,100113.72
2023-04-16T23:25:29.469Z,100119.13
2023-04-16T23:27:56.877Z,100126.09
2023-04-16T23:30:24.157Z,100112.09
2023-04-16T23:32:51.619Z,100102.47
2023-04-16T23:35:22.870Z,100115.59
2023-04-16T23:37:49.976Z,100119.84
2023-04-16T23:40:17.057Z,100111.84
2023-04-16T23:42:43.962Z,100095.13
2023-04-16T23:45:11.838Z,100110.94
2023-04-16T23:47:39.136Z,100104.66
2023-04-16T23:50:06.806Z,100117.16
2023-04-16T23:52:34.105Z,100100.53
2023-04-16T23:55:01.042Z,100100.41
2023-04-16T23:57:27.902Z,100084.63
2023-04-16T23:59:55.024Z,100107.16
